sensor_id;sensor_type;location;lat;lon;timestamp;temperature;humidity
4295;DHT22;2161;53.634;10.100;2023-05-23T00:00:40;16.10;99.90
4295;DHT22;2161;53.634;10.100;2023-05-23T00:03:06;16.00;99.90
4295;DHT22;2161;53.634;10.100;2023-05-23T00:05:31;16.00;99.90
4295;DHT22;2161;53.634;10.100;2023-05-23T00:07:57;15.90;99.90
4295;DHT22;2161;53.634;10.100;2023-05-23T00:10:22;15.90;99.90
4295;DHT22;2161;53.634;10.100;2023-05-23T00:12:47;15.80;99.90
4295;DHT22;2161;53.634;10.100;2023-05-23T00:15:13;15.80;99.90
4295;DHT22;2161;53.634;10.100;2023-05-23T00:17:38;15.70;99.90
4295;DHT22;2161;53.634;10.100;2023-05-23T00:20:04;15.80;99.90
4295;DHT22;2161;53.634;10.100;2023-05-23T00:22:30;15.70;99.90
4295;DHT22;2161;53.634;10.100;2023-05-23T00:24:55;15.70;99.90
4295;DHT22;2161;53.634;10.100;2023-05-23T00:27:22;15.60;99.90
4295;DHT22;2161;53.634;10.100;2023-05-23T00:29:47;15.50;99.90
4295;DHT22;2161;53.634;10.100;2023-05-23T00:32:13;15.50;99.90
4295;DHT22;2161;53.634;10.100;2023-05-23T00:34:38;15.40;99.90
4295;DHT22;2161;53.634;10.100;2023-05-23T00:37:03;15.30;99.90
4295;DHT22;2161;53.634;10.100;2023-05-23T00:39:29;15.30;99.90
4295;DHT22;2161;53.634;10.100;2023-05-23T00:41:54;15.30;99.90
4295;DHT22;2161;53.634;10.100;2023-05-23T00:44:20;15.30;99.90
4295;DHT22;2161;53.634;10.100;2023-05-23T00:46:46;15.20;99.90
4295;DHT22;2161;53.634;10.100;2023-05-23T00:49:13;15.20;99.90
4295;DHT22;2161;53.634;10.100;2023-05-23T00:51:39;15.20;99.90
4295;DHT22;2161;53.634;10.100;2023-05-23T00:54:07;15.10;99.90
4295;DHT22;2161;53.634;10.100;2023-05-23T00:56:33;15.10;99.90
4295;DHT22;2161;53.634;10.100;2023-05-23T00:58:59;15.10;99.90
4295;DHT22;2161;53.634;10.100;2023-05-23T01:01:25;15.00;99.90
4295;DHT22;2161;53.634;10.100;2023-05-23T01:03:51;14.90;99.90
4295;DHT22;2161;53.634;10.100;2023-05-23T01:06:16;15.00;99.90
4295;DHT22;2161;53.634;10.100;2023-05-23T01:08:42;15.10;99.90
4295;DHT22;2161;53.634;10.100;2023-05-23T01:14:08;15.10;99.90
4295;DHT22;2161;53.634;10.100;2023-05-23T01:16:37;15.10;99.90
4295;DHT22;2161;53.634;10.100;2023-05-23T01:19:16;15.20;99.90
4295;DHT22;2161;53.634;10.100;2023-05-23T01:21:49;15.10;99.90
4295;DHT22;2161;53.634;10.100;2023-05-23T01:24:31;15.10;99.90
4295;DHT22;2161;53.634;10.100;2023-05-23T01:27:06;15.10;99.90
4295;DHT22;2161;53.634;10.100;2023-05-23T01:29:41;15.10;99.90
4295;DHT22;2161;53.634;10.100;2023-05-23T01:32:09;15.10;99.90
4295;DHT22;2161;53.634;10.100;2023-05-23T01:34:35;15.10;99.90
4295;DHT22;2161;53.634;10.100;2023-05-23T01:37:01;15.20;99.90
4295;DHT22;2161;53.634;10.100;2023-05-23T01:39:32;15.20;99.90
4295;DHT22;2161;53.634;10.100;2023-05-23T01:41:57;15.20;99.90
4295;DHT22;2161;53.634;10.100;2023-05-23T01:44:22;15.20;99.90
4295;DHT22;2161;53.634;10.100;2023-05-23T01:46:48;15.30;99.90
4295;DHT22;2161;53.634;10.100;2023-05-23T01:49:13;15.40;99.90
4295;DHT22;2161;53.634;10.100;2023-05-23T01:51:39;15.40;99.90
4295;DHT22;2161;53.634;10.100;2023-05-23T01:54:05;15.40;99.90
4295;DHT22;2161;53.634;10.100;2023-05-23T01:56:31;15.50;99.90
4295;DHT22;2161;53.634;10.100;2023-05-23T01:58:56;15.50;99.90
4295;DHT22;2161;53.634;10.100;2023-05-23T02:01:22;15.50;99.90
4295;DHT22;2161;53.634;10.100;2023-05-23T02:03:48;15.50;99.90
4295;DHT22;2161;53.634;10.100;2023-05-23T02:06:13;15.50;99.90
4295;DHT22;2161;53.634;10.100;2023-05-23T02:08:38;15.50;99.90
4295;DHT22;2161;53.634;10.100;2023-05-23T02:11:04;15.60;99.90
4295;DHT22;2161;53.634;10.100;2023-05-23T02:13:29;15.60;99.90
4295;DHT22;2161;53.634;10.100;2023-05-23T02:15:55;15.60;99.90
4295;DHT22;2161;53.634;10.100;2023-05-23T02:18:21;15.60;99.90
4295;DHT22;2161;53.634;10.100;2023-05-23T02:20:46;15.60;99.90
4295;DHT22;2161;53.634;10.100;2023-05-23T02:23:12;15.50;99.90
4295;DHT22;2161;53.634;10.100;2023-05-23T02:25:37;15.70;99.90
4295;DHT22;2161;53.634;10.100;2023-05-23T02:28:03;15.60;99.90
4295;DHT22;2161;53.634;10.100;2023-05-23T02:30:28;15.50;99.90
4295;DHT22;2161;53.634;10.100;2023-05-23T02:32:54;15.70;99.90
4295;DHT22;2161;53.634;10.100;2023-05-23T02:35:20;15.70;99.90
4295;DHT22;2161;53.634;10.100;2023-05-23T02:37:46;15.70;99.90
4295;DHT22;2161;53.634;10.100;2023-05-23T02:40:11;15.70;99.90
4295;DHT22;2161;53.634;10.100;2023-05-23T02:42:37;15.60;99.90
4295;DHT22;2161;53.634;10.100;2023-05-23T02:45:02;15.70;99.90
4295;DHT22;2161;53.634;10.100;2023-05-23T02:47:28;15.70;99.90
4295;DHT22;2161;53.634;10.100;2023-05-23T02:49:53;15.60;99.90
4295;DHT22;2161;53.634;10.100;2023-05-23T02:52:18;15.50;99.90
4295;DHT22;2161;53.634;10.100;2023-05-23T02:54:45;15.50;99.90
4295;DHT22;2161;53.634;10.100;2023-05-23T02:57:10;15.40;99.90
4295;DHT22;2161;53.634;10.100;2023-05-23T02:59:36;15.40;99.90
4295;DHT22;2161;53.634;10.100;2023-05-23T03:02:01;15.40;99.90
4295;DHT22;2161;53.634;10.100;2023-05-23T03:04:26;15.30;99.90
4295;DHT22;2161;53.634;10.100;2023-05-23T03:06:52;15.30;99.90
4295;DHT22;2161;53.634;10.100;2023-05-23T03:09:18;15.30;99.90
4295;DHT22;2161;53.634;10.100;2023-05-23T03:11:44;15.20;99.90
4295;DHT22;2161;53.634;10.100;2023-05-23T03:14:09;15.30;99.90
4295;DHT22;2161;53.634;10.100;2023-05-23T03:16:35;15.20;99.90
4295;DHT22;2161;53.634;10.100;2023-05-23T03:19:00;15.20;99.90
4295;DHT22;2161;53.634;10.100;2023-05-23T03:21:26;15.20;99.90
4295;DHT22;2161;53.634;10.100;2023-05-23T03:23:51;15.20;99.90
4295;DHT22;2161;53.634;10.100;2023-05-23T03:26:17;15.10;99.90
4295;DHT22;2161;53.634;10.100;2023-05-23T03:28:42;15.10;99.90
4295;DHT22;2161;53.634;10.100;2023-05-23T03:31:07;15.10;99.90
4295;DHT22;2161;53.634;10.100;2023-05-23T03:33:33;15.10;99.90
4295;DHT22;2161;53.634;10.100;2023-05-23T03:35:58;14.90;99.90
4295;DHT22;2161;53.634;10.100;2023-05-23T03:38:24;15.00;99.90
4295;DHT22;2161;53.634;10.100;2023-05-23T03:40:50;14.90;99.90
4295;DHT22;2161;53.634;10.100;2023-05-23T03:43:15;14.90;99.90
4295;DHT22;2161;53.634;10.100;2023-05-23T03:45:41;14.80;99.90
4295;DHT22;2161;53.634;10.100;2023-05-23T03:48:06;14.90;99.90
4295;DHT22;2161;53.634;10.100;2023-05-23T03:50:31;14.90;99.90
4295;DHT22;2161;53.634;10.100;2023-05-23T03:52:57;14.90;99.90
4295;DHT22;2161;53.634;10.100;2023-05-23T03:55:23;14.90;99.90
4295;DHT22;2161;53.634;10.100;2023-05-23T03:57:49;14.80;99.90
4295;DHT22;2161;53.634;10.100;2023-05-23T04:00:19;14.80;99.90
4295;DHT22;2161;53.634;10.100;2023-05-23T04:02:44;14.80;99.90
4295;DHT22;2161;53.634;10.100;2023-05-23T04:05:10;14.80;99.90
4295;DHT22;2161;53.634;10.100;2023-05-23T04:07:36;14.80;99.90
4295;DHT22;2161;53.634;10.100;2023-05-23T04:10:02;14.80;99.90
4295;DHT22;2161;53.634;10.100;2023-05-23T04:12:28;14.80;99.90
4295;DHT22;2161;53.634;10.100;2023-05-23T04:14:56;14.80;99.90
4295;DHT22;2161;53.634;10.100;2023-05-23T04:17:22;14.80;99.90
4295;DHT22;2161;53.634;10.100;2023-05-23T04:19:48;14.80;99.90
4295;DHT22;2161;53.634;10.100;2023-05-23T04:22:14;14.80;99.90
4295;DHT22;2161;53.634;10.100;2023-05-23T04:24:39;14.90;99.90
4295;DHT22;2161;53.634;10.100;2023-05-23T04:27:05;14.80;99.90
4295;DHT22;2161;53.634;10.100;2023-05-23T04:29:32;14.80;99.90
4295;DHT22;2161;53.634;10.100;2023-05-23T04:31:58;14.60;99.90
4295;DHT22;2161;53.634;10.100;2023-05-23T04:34:23;14.60;99.90
4295;DHT22;2161;53.634;10.100;2023-05-23T04:36:48;14.60;99.90
4295;DHT22;2161;53.634;10.100;2023-05-23T04:39:14;14.50;99.90
4295;DHT22;2161;53.634;10.100;2023-05-23T04:41:41;14.50;99.90
4295;DHT22;2161;53.634;10.100;2023-05-23T04:44:06;14.50;99.90
4295;DHT22;2161;53.634;10.100;2023-05-23T04:46:34;14.50;99.90
4295;DHT22;2161;53.634;10.100;2023-05-23T04:49:00;14.40;99.90
4295;DHT22;2161;53.634;10.100;2023-05-23T04:51:26;14.40;99.90
4295;DHT22;2161;53.634;10.100;2023-05-23T04:53:51;14.40;99.90
4295;DHT22;2161;53.634;10.100;2023-05-23T04:56:17;14.40;99.90
4295;DHT22;2161;53.634;10.100;2023-05-23T04:58:45;14.40;99.90
4295;DHT22;2161;53.634;10.100;2023-05-23T05:01:11;14.40;99.90
4295;DHT22;2161;53.634;10.100;2023-05-23T05:03:36;14.40;99.90
4295;DHT22;2161;53.634;10.100;2023-05-23T05:06:02;14.40;99.90
4295;DHT22;2161;53.634;10.100;2023-05-23T05:08:27;14.40;99.90
4295;DHT22;2161;53.634;10.100;2023-05-23T05:10:53;14.50;99.90
4295;DHT22;2161;53.634;10.100;2023-05-23T05:13:18;14.50;99.90
4295;DHT22;2161;53.634;10.100;2023-05-23T05:15:44;14.40;99.90
4295;DHT22;2161;53.634;10.100;2023-05-23T05:18:09;14.40;99.90
4295;DHT22;2161;53.634;10.100;2023-05-23T05:20:36;14.40;99.90
4295;DHT22;2161;53.634;10.100;2023-05-23T05:23:01;14.40;99.90
4295;DHT22;2161;53.634;10.100;2023-05-23T05:25:27;14.50;99.90
4295;DHT22;2161;53.634;10.100;2023-05-23T05:27:56;14.50;99.90
4295;DHT22;2161;53.634;10.100;2023-05-23T05:30:22;14.50;99.90
4295;DHT22;2161;53.634;10.100;2023-05-23T05:32:47;14.50;99.90
4295;DHT22;2161;53.634;10.100;2023-05-23T05:35:13;14.50;99.90
4295;DHT22;2161;53.634;10.100;2023-05-23T05:37:38;14.60;99.90
4295;DHT22;2161;53.634;10.100;2023-05-23T05:40:04;14.50;99.90
4295;DHT22;2161;53.634;10.100;2023-05-23T05:42:31;14.50;99.90
4295;DHT22;2161;53.634;10.100;2023-05-23T05:44:57;14.40;99.90
4295;DHT22;2161;53.634;10.100;2023-05-23T05:47:22;14.40;99.90
4295;DHT22;2161;53.634;10.100;2023-05-23T05:49:48;14.50;99.90
4295;DHT22;2161;53.634;10.100;2023-05-23T05:52:13;14.50;99.90
4295;DHT22;2161;53.634;10.100;2023-05-23T05:54:38;14.50;99.90
4295;DHT22;2161;53.634;10.100;2023-05-23T05:57:04;14.60;99.90
4295;DHT22;2161;53.634;10.100;2023-05-23T05:59:29;14.60;99.90
4295;DHT22;2161;53.634;10.100;2023-05-23T06:01:55;14.50;99.90
4295;DHT22;2161;53.634;10.100;2023-05-23T06:04:20;14.50;99.90
4295;DHT22;2161;53.634;10.100;2023-05-23T06:06:46;14.60;99.90
4295;DHT22;2161;53.634;10.100;2023-05-23T06:09:11;14.60;99.90
4295;DHT22;2161;53.634;10.100;2023-05-23T06:11:37;14.50;99.90
4295;DHT22;2161;53.634;10.100;2023-05-23T06:14:05;14.50;99.90
4295;DHT22;2161;53.634;10.100;2023-05-23T06:16:30;14.50;99.90
4295;DHT22;2161;53.634;10.100;2023-05-23T06:18:56;14.50;99.90
4295;DHT22;2161;53.634;10.100;2023-05-23T06:21:21;14.50;99.90
4295;DHT22;2161;53.634;10.100;2023-05-23T06:23:47;14.50;99.90
4295;DHT22;2161;53.634;10.100;2023-05-23T06:26:12;14.60;99.90
4295;DHT22;2161;53.634;10.100;2023-05-23T06:28:38;14.60;99.90
4295;DHT22;2161;53.634;10.100;2023-05-23T06:31:06;14.60;99.90
4295;DHT22;2161;53.634;10.100;2023-05-23T06:33:34;14.60;99.90
4295;DHT22;2161;53.634;10.100;2023-05-23T06:35:59;14.60;99.90
4295;DHT22;2161;53.634;10.100;2023-05-23T06:38:25;14.60;99.90
4295;DHT22;2161;53.634;10.100;2023-05-23T06:40:51;14.50;99.90
4295;DHT22;2161;53.634;10.100;2023-05-23T06:43:16;14.50;99.90
4295;DHT22;2161;53.634;10.100;2023-05-23T06:45:44;14.60;99.90
4295;DHT22;2161;53.634;10.100;2023-05-23T06:48:13;14.70;99.90
4295;DHT22;2161;53.634;10.100;2023-05-23T06:50:39;14.70;99.90
4295;DHT22;2161;53.634;10.100;2023-05-23T06:53:05;14.70;99.90
4295;DHT22;2161;53.634;10.100;2023-05-23T06:55:30;14.70;99.90
4295;DHT22;2161;53.634;10.100;2023-05-23T06:58:01;14.70;99.90
4295;DHT22;2161;53.634;10.100;2023-05-23T07:00:28;14.70;99.90
4295;DHT22;2161;53.634;10.100;2023-05-23T07:02:54;14.70;99.90
4295;DHT22;2161;53.634;10.100;2023-05-23T07:05:19;14.80;99.90
4295;DHT22;2161;53.634;10.100;2023-05-23T07:07:46;14.70;99.90
4295;DHT22;2161;53.634;10.100;2023-05-23T07:10:11;14.80;99.90
4295;DHT22;2161;53.634;10.100;2023-05-23T07:12:37;14.70;99.90
4295;DHT22;2161;53.634;10.100;2023-05-23T07:15:02;14.80;99.90
4295;DHT22;2161;53.634;10.100;2023-05-23T07:17:28;14.70;99.90
4295;DHT22;2161;53.634;10.100;2023-05-23T07:19:54;14.70;99.90
4295;DHT22;2161;53.634;10.100;2023-05-23T07:22:20;14.80;99.90
4295;DHT22;2161;53.634;10.100;2023-05-23T07:24:45;14.70;99.90
4295;DHT22;2161;53.634;10.100;2023-05-23T07:27:11;14.70;99.90
4295;DHT22;2161;53.634;10.100;2023-05-23T07:29:36;14.70;99.90
4295;DHT22;2161;53.634;10.100;2023-05-23T07:32:02;14.80;99.90
4295;DHT22;2161;53.634;10.100;2023-05-23T07:34:27;14.70;99.90
4295;DHT22;2161;53.634;10.100;2023-05-23T07:36:53;14.70;99.90
4295;DHT22;2161;53.634;10.100;2023-05-23T07:39:18;14.60;99.90
4295;DHT22;2161;53.634;10.100;2023-05-23T07:41:46;14.60;99.90
4295;DHT22;2161;53.634;10.100;2023-05-23T07:44:12;14.50;99.90
4295;DHT22;2161;53.634;10.100;2023-05-23T07:46:37;14.70;99.90
4295;DHT22;2161;53.634;10.100;2023-05-23T07:49:03;14.80;99.90
4295;DHT22;2161;53.634;10.100;2023-05-23T07:51:28;14.90;99.90
4295;DHT22;2161;53.634;10.100;2023-05-23T07:53:53;15.00;99.90
4295;DHT22;2161;53.634;10.100;2023-05-23T07:56:19;15.20;99.90
4295;DHT22;2161;53.634;10.100;2023-05-23T07:58:45;15.30;99.90
4295;DHT22;2161;53.634;10.100;2023-05-23T08:01:10;15.50;99.90
4295;DHT22;2161;53.634;10.100;2023-05-23T08:03:36;15.60;99.90
4295;DHT22;2161;53.634;10.100;2023-05-23T08:06:01;15.80;99.90
4295;DHT22;2161;53.634;10.100;2023-05-23T08:08:27;16.00;99.90
4295;DHT22;2161;53.634;10.100;2023-05-23T08:10:52;15.80;99.90
4295;DHT22;2161;53.634;10.100;2023-05-23T08:13:18;15.60;99.90
4295;DHT22;2161;53.634;10.100;2023-05-23T08:15:43;15.50;99.90
4295;DHT22;2161;53.634;10.100;2023-05-23T08:18:08;15.50;99.90
4295;DHT22;2161;53.634;10.100;2023-05-23T08:20:34;15.20;99.90
4295;DHT22;2161;53.634;10.100;2023-05-23T08:23:00;15.30;99.90
4295;DHT22;2161;53.634;10.100;2023-05-23T08:25:26;15.40;99.90
4295;DHT22;2161;53.634;10.100;2023-05-23T08:27:55;15.40;99.90
4295;DHT22;2161;53.634;10.100;2023-05-23T08:30:22;15.20;99.90
4295;DHT22;2161;53.634;10.100;2023-05-23T08:32:50;15.10;99.90
4295;DHT22;2161;53.634;10.100;2023-05-23T08:35:15;15.10;99.90
4295;DHT22;2161;53.634;10.100;2023-05-23T08:37:40;14.90;99.90
4295;DHT22;2161;53.634;10.100;2023-05-23T08:40:07;14.80;99.90
4295;DHT22;2161;53.634;10.100;2023-05-23T08:42:36;15.20;99.90
4295;DHT22;2161;53.634;10.100;2023-05-23T08:45:02;15.40;99.90
4295;DHT22;2161;53.634;10.100;2023-05-23T08:47:27;15.30;99.90
4295;DHT22;2161;53.634;10.100;2023-05-23T08:49:54;15.40;99.90
4295;DHT22;2161;53.634;10.100;2023-05-23T08:52:20;15.60;99.90
4295;DHT22;2161;53.634;10.100;2023-05-23T08:54:49;15.60;99.90
4295;DHT22;2161;53.634;10.100;2023-05-23T08:57:15;15.50;99.90
4295;DHT22;2161;53.634;10.100;2023-05-23T08:59:41;15.30;99.90
4295;DHT22;2161;53.634;10.100;2023-05-23T09:02:07;15.00;99.90
4295;DHT22;2161;53.634;10.100;2023-05-23T09:04:35;14.90;99.90
4295;DHT22;2161;53.634;10.100;2023-05-23T09:07:00;14.80;99.90
4295;DHT22;2161;53.634;10.100;2023-05-23T09:09:26;14.70;99.90
4295;DHT22;2161;53.634;10.100;2023-05-23T09:11:53;14.60;99.90
4295;DHT22;2161;53.634;10.100;2023-05-23T09:14:19;14.60;99.90
4295;DHT22;2161;53.634;10.100;2023-05-23T09:16:45;14.50;99.90
4295;DHT22;2161;53.634;10.100;2023-05-23T09:19:12;14.60;99.90
4295;DHT22;2161;53.634;10.100;2023-05-23T09:21:42;14.60;99.90
4295;DHT22;2161;53.634;10.100;2023-05-23T09:24:07;14.50;99.90
4295;DHT22;2161;53.634;10.100;2023-05-23T09:26:33;14.40;99.90
4295;DHT22;2161;53.634;10.100;2023-05-23T09:28:59;14.40;99.90
4295;DHT22;2161;53.634;10.100;2023-05-23T09:31:25;14.30;99.90
4295;DHT22;2161;53.634;10.100;2023-05-23T09:33:50;14.10;99.90
4295;DHT22;2161;53.634;10.100;2023-05-23T09:36:16;14.10;99.90
4295;DHT22;2161;53.634;10.100;2023-05-23T09:38:42;14.00;99.90
4295;DHT22;2161;53.634;10.100;2023-05-23T09:41:08;13.70;99.90
4295;DHT22;2161;53.634;10.100;2023-05-23T09:43:39;13.60;99.90
4295;DHT22;2161;53.634;10.100;2023-05-23T09:46:13;13.80;99.90
4295;DHT22;2161;53.634;10.100;2023-05-23T09:48:39;13.80;99.90
4295;DHT22;2161;53.634;10.100;2023-05-23T09:51:04;13.70;99.90
4295;DHT22;2161;53.634;10.100;2023-05-23T09:53:30;13.60;99.90
4295;DHT22;2161;53.634;10.100;2023-05-23T09:55:57;13.50;99.90
4295;DHT22;2161;53.634;10.100;2023-05-23T09:58:23;13.50;99.90
4295;DHT22;2161;53.634;10.100;2023-05-23T10:00:49;13.60;99.90
4295;DHT22;2161;53.634;10.100;2023-05-23T10:03:21;13.70;99.90
4295;DHT22;2161;53.634;10.100;2023-05-23T10:05:48;13.60;99.90
4295;DHT22;2161;53.634;10.100;2023-05-23T10:08:23;13.70;99.90
4295;DHT22;2161;53.634;10.100;2023-05-23T10:13:26;13.60;99.90
4295;DHT22;2161;53.634;10.100;2023-05-23T10:15:53;13.40;99.90
4295;DHT22;2161;53.634;10.100;2023-05-23T10:18:20;13.40;99.90
4295;DHT22;2161;53.634;10.100;2023-05-23T10:20:48;13.40;99.90
4295;DHT22;2161;53.634;10.100;2023-05-23T10:23:13;13.40;99.90
4295;DHT22;2161;53.634;10.100;2023-05-23T10:25:39;13.50;99.90
4295;DHT22;2161;53.634;10.100;2023-05-23T10:28:06;13.60;99.90
4295;DHT22;2161;53.634;10.100;2023-05-23T10:30:32;13.70;99.90
4295;DHT22;2161;53.634;10.100;2023-05-23T10:32:58;13.60;99.90
4295;DHT22;2161;53.634;10.100;2023-05-23T10:40:23;13.50;99.90
4295;DHT22;2161;53.634;10.100;2023-05-23T10:42:56;13.70;99.90
4295;DHT22;2161;53.634;10.100;2023-05-23T10:45:26;13.50;99.90
4295;DHT22;2161;53.634;10.100;2023-05-23T10:47:51;13.40;99.90
4295;DHT22;2161;53.634;10.100;2023-05-23T10:50:30;13.50;99.90
4295;DHT22;2161;53.634;10.100;2023-05-23T10:52:58;13.40;99.90
4295;DHT22;2161;53.634;10.100;2023-05-23T10:55:23;13.30;99.90
4295;DHT22;2161;53.634;10.100;2023-05-23T10:58:07;13.30;99.90
4295;DHT22;2161;53.634;10.100;2023-05-23T11:00:33;13.40;99.90
4295;DHT22;2161;53.634;10.100;2023-05-23T11:02:59;13.70;99.90
4295;DHT22;2161;53.634;10.100;2023-05-23T11:05:26;13.50;99.90
4295;DHT22;2161;53.634;10.100;2023-05-23T11:08:05;13.70;99.90
4295;DHT22;2161;53.634;10.100;2023-05-23T11:10:32;13.80;99.90
4295;DHT22;2161;53.634;10.100;2023-05-23T11:13:05;13.70;99.90
4295;DHT22;2161;53.634;10.100;2023-05-23T11:15:40;14.00;99.90
4295;DHT22;2161;53.634;10.100;2023-05-23T11:18:05;14.20;99.90
4295;DHT22;2161;53.634;10.100;2023-05-23T11:20:30;14.00;99.90
4295;DHT22;2161;53.634;10.100;2023-05-23T11:23:00;13.90;99.90
4295;DHT22;2161;53.634;10.100;2023-05-23T11:28:10;14.80;99.90
4295;DHT22;2161;53.634;10.100;2023-05-23T11:30:36;15.50;99.90
4295;DHT22;2161;53.634;10.100;2023-05-23T11:33:05;15.50;99.90
4295;DHT22;2161;53.634;10.100;2023-05-23T11:35:31;15.40;99.90
4295;DHT22;2161;53.634;10.100;2023-05-23T11:37:57;15.70;99.90
4295;DHT22;2161;53.634;10.100;2023-05-23T11:40:32;15.20;99.90
4295;DHT22;2161;53.634;10.100;2023-05-23T11:42:59;15.40;99.90
4295;DHT22;2161;53.634;10.100;2023-05-23T11:45:25;15.80;99.90
4295;DHT22;2161;53.634;10.100;2023-05-23T11:47:51;15.80;99.90
4295;DHT22;2161;53.634;10.100;2023-05-23T11:50:17;16.40;99.90
4295;DHT22;2161;53.634;10.100;2023-05-23T11:52:44;17.40;99.90
4295;DHT22;2161;53.634;10.100;2023-05-23T11:55:15;17.50;99.90
4295;DHT22;2161;53.634;10.100;2023-05-23T11:57:41;18.00;99.90
4295;DHT22;2161;53.634;10.100;2023-05-23T12:00:06;18.00;99.90
4295;DHT22;2161;53.634;10.100;2023-05-23T12:02:42;17.80;99.90
4295;DHT22;2161;53.634;10.100;2023-05-23T12:05:11;17.10;99.90
4295;DHT22;2161;53.634;10.100;2023-05-23T12:07:40;17.00;99.90
4295;DHT22;2161;53.634;10.100;2023-05-23T12:10:07;16.50;99.90
4295;DHT22;2161;53.634;10.100;2023-05-23T12:12:32;17.20;99.90
4295;DHT22;2161;53.634;10.100;2023-05-23T12:14:58;17.40;99.90
4295;DHT22;2161;53.634;10.100;2023-05-23T12:17:23;17.00;99.90
4295;DHT22;2161;53.634;10.100;2023-05-23T12:19:49;17.30;99.90
4295;DHT22;2161;53.634;10.100;2023-05-23T12:22:20;20.40;99.90
4295;DHT22;2161;53.634;10.100;2023-05-23T12:24:46;19.70;99.90
4295;DHT22;2161;53.634;10.100;2023-05-23T12:27:12;19.30;99.90
4295;DHT22;2161;53.634;10.100;2023-05-23T12:29:37;19.30;99.90
4295;DHT22;2161;53.634;10.100;2023-05-23T12:32:03;21.80;99.90
4295;DHT22;2161;53.634;10.100;2023-05-23T12:34:29;22.30;99.90
4295;DHT22;2161;53.634;10.100;2023-05-23T12:36:58;22.10;99.90
4295;DHT22;2161;53.634;10.100;2023-05-23T12:39:24;20.40;99.90
4295;DHT22;2161;53.634;10.100;2023-05-23T12:41:51;21.50;99.90
4295;DHT22;2161;53.634;10.100;2023-05-23T12:44:16;20.60;99.90
4295;DHT22;2161;53.634;10.100;2023-05-23T12:46:42;18.90;99.90
4295;DHT22;2161;53.634;10.100;2023-05-23T12:49:07;19.00;99.90
4295;DHT22;2161;53.634;10.100;2023-05-23T12:51:33;20.10;99.90
4295;DHT22;2161;53.634;10.100;2023-05-23T12:53:59;19.50;99.90
4295;DHT22;2161;53.634;10.100;2023-05-23T12:56:24;20.50;99.90
4295;DHT22;2161;53.634;10.100;2023-05-23T12:58:50;20.10;99.90
4295;DHT22;2161;53.634;10.100;2023-05-23T13:01:18;18.80;99.90
4295;DHT22;2161;53.634;10.100;2023-05-23T13:03:44;20.40;99.90
4295;DHT22;2161;53.634;10.100;2023-05-23T13:06:09;21.70;99.90
4295;DHT22;2161;53.634;10.100;2023-05-23T13:08:35;21.90;99.90
4295;DHT22;2161;53.634;10.100;2023-05-23T13:11:01;21.90;99.90
4295;DHT22;2161;53.634;10.100;2023-05-23T13:13:27;20.20;99.90
4295;DHT22;2161;53.634;10.100;2023-05-23T13:15:52;18.70;99.90
4295;DHT22;2161;53.634;10.100;2023-05-23T13:18:18;18.80;99.90
4295;DHT22;2161;53.634;10.100;2023-05-23T13:20:43;18.60;99.90
4295;DHT22;2161;53.634;10.100;2023-05-23T13:23:09;17.90;99.90
4295;DHT22;2161;53.634;10.100;2023-05-23T13:25:35;18.00;99.90
4295;DHT22;2161;53.634;10.100;2023-05-23T13:28:00;18.10;99.90
4295;DHT22;2161;53.634;10.100;2023-05-23T13:30:26;17.70;99.90
4295;DHT22;2161;53.634;10.100;2023-05-23T13:32:51;17.50;99.90
4295;DHT22;2161;53.634;10.100;2023-05-23T13:35:17;17.40;99.90
4295;DHT22;2161;53.634;10.100;2023-05-23T13:37:42;17.20;99.90
4295;DHT22;2161;53.634;10.100;2023-05-23T13:40:10;17.40;99.90
4295;DHT22;2161;53.634;10.100;2023-05-23T13:42:36;17.10;99.90
4295;DHT22;2161;53.634;10.100;2023-05-23T13:45:02;16.70;99.90
4295;DHT22;2161;53.634;10.100;2023-05-23T13:47:29;17.20;99.90
4295;DHT22;2161;53.634;10.100;2023-05-23T13:49:55;17.90;99.90
4295;DHT22;2161;53.634;10.100;2023-05-23T13:52:20;17.80;99.90
4295;DHT22;2161;53.634;10.100;2023-05-23T13:54:46;18.90;99.90
4295;DHT22;2161;53.634;10.100;2023-05-23T13:57:11;19.00;99.90
4295;DHT22;2161;53.634;10.100;2023-05-23T13:59:37;18.80;99.90
4295;DHT22;2161;53.634;10.100;2023-05-23T14:02:02;17.60;99.90
4295;DHT22;2161;53.634;10.100;2023-05-23T14:04:28;16.80;99.90
4295;DHT22;2161;53.634;10.100;2023-05-23T14:06:53;16.60;99.90
4295;DHT22;2161;53.634;10.100;2023-05-23T14:09:19;16.60;99.90
4295;DHT22;2161;53.634;10.100;2023-05-23T14:11:44;16.90;99.90
4295;DHT22;2161;53.634;10.100;2023-05-23T14:14:10;17.40;99.90
4295;DHT22;2161;53.634;10.100;2023-05-23T14:16:35;17.70;99.90
4295;DHT22;2161;53.634;10.100;2023-05-23T14:19:01;17.20;99.90
4295;DHT22;2161;53.634;10.100;2023-05-23T14:21:26;17.30;99.90
4295;DHT22;2161;53.634;10.100;2023-05-23T14:23:52;17.30;99.90
4295;DHT22;2161;53.634;10.100;2023-05-23T14:26:18;17.00;99.90
4295;DHT22;2161;53.634;10.100;2023-05-23T14:28:43;16.60;99.90
4295;DHT22;2161;53.634;10.100;2023-05-23T14:31:09;16.30;99.90
4295;DHT22;2161;53.634;10.100;2023-05-23T14:33:34;16.30;99.90
4295;DHT22;2161;53.634;10.100;2023-05-23T14:36:00;16.10;99.90
4295;DHT22;2161;53.634;10.100;2023-05-23T14:38:25;16.10;99.90
4295;DHT22;2161;53.634;10.100;2023-05-23T14:40:51;17.00;99.90
4295;DHT22;2161;53.634;10.100;2023-05-23T14:43:18;17.20;99.90
4295;DHT22;2161;53.634;10.100;2023-05-23T14:45:43;17.10;99.90
4295;DHT22;2161;53.634;10.100;2023-05-23T14:48:09;16.90;99.90
4295;DHT22;2161;53.634;10.100;2023-05-23T14:50:34;16.60;99.90
4295;DHT22;2161;53.634;10.100;2023-05-23T14:53:00;16.50;99.90
4295;DHT22;2161;53.634;10.100;2023-05-23T14:55:26;16.30;99.90
4295;DHT22;2161;53.634;10.100;2023-05-23T14:57:51;16.30;99.90
4295;DHT22;2161;53.634;10.100;2023-05-23T15:00:17;16.60;99.90
4295;DHT22;2161;53.634;10.100;2023-05-23T15:02:43;16.50;99.90
4295;DHT22;2161;53.634;10.100;2023-05-23T15:05:10;16.90;99.90
4295;DHT22;2161;53.634;10.100;2023-05-23T15:07:37;17.20;99.90
4295;DHT22;2161;53.634;10.100;2023-05-23T15:10:06;16.50;99.90
4295;DHT22;2161;53.634;10.100;2023-05-23T15:12:32;16.10;99.90
4295;DHT22;2161;53.634;10.100;2023-05-23T15:14:58;15.90;99.90
4295;DHT22;2161;53.634;10.100;2023-05-23T15:17:36;16.10;99.90
4295;DHT22;2161;53.634;10.100;2023-05-23T15:20:02;15.60;99.90
4295;DHT22;2161;53.634;10.100;2023-05-23T15:22:27;15.90;99.90
4295;DHT22;2161;53.634;10.100;2023-05-23T15:24:53;16.30;99.90
4295;DHT22;2161;53.634;10.100;2023-05-23T15:27:18;16.60;99.90
4295;DHT22;2161;53.634;10.100;2023-05-23T15:29:46;16.10;99.90
4295;DHT22;2161;53.634;10.100;2023-05-23T15:32:12;15.70;99.90
4295;DHT22;2161;53.634;10.100;2023-05-23T15:34:37;15.40;99.90
4295;DHT22;2161;53.634;10.100;2023-05-23T15:37:03;15.30;99.90
4295;DHT22;2161;53.634;10.100;2023-05-23T15:39:28;15.50;99.90
4295;DHT22;2161;53.634;10.100;2023-05-23T15:41:54;15.90;99.90
4295;DHT22;2161;53.634;10.100;2023-05-23T15:44:20;15.90;99.90
4295;DHT22;2161;53.634;10.100;2023-05-23T15:46:49;15.20;99.90
4295;DHT22;2161;53.634;10.100;2023-05-23T15:49:15;15.10;99.90
4295;DHT22;2161;53.634;10.100;2023-05-23T15:51:40;14.90;99.90